Map

Track Data

SID SEASON NUMBER BASIN SUBBASIN NAME ISO_TIME NATURE LAT LON WMO_WIND WMO_PRES WMO_AGENCY TRACK_TYPE DIST2LAND LANDFALL IFLAG USA_AGENCY USA_ATCF_ID USA_LAT USA_LON USA_RECORD USA_STATUS USA_WIND USA_PRES USA_SSHS USA_R34_NE USA_R34_SE USA_R34_SW USA_R34_NW USA_R50_NE USA_R50_SE USA_R50_SW USA_R50_NW USA_R64_NE USA_R64_SE USA_R64_SW USA_R64_NW USA_POCI USA_ROCI USA_RMW USA_EYE TOKYO_LAT TOKYO_LON TOKYO_GRADE TOKYO_WIND TOKYO_PRES TOKYO_R50_DIR TOKYO_R50_LONG TOKYO_R50_SHORT TOKYO_R30_DIR TOKYO_R30_LONG TOKYO_R30_SHORT TOKYO_LAND CMA_LAT CMA_LON CMA_CAT CMA_WIND CMA_PRES HKO_LAT HKO_LON HKO_CAT HKO_WIND HKO_PRES NEWDELHI_LAT NEWDELHI_LON NEWDELHI_GRADE NEWDELHI_WIND NEWDELHI_PRES NEWDELHI_CI NEWDELHI_DP NEWDELHI_POCI REUNION_LAT REUNION_LON REUNION_TYPE REUNION_WIND REUNION_PRES REUNION_TNUM REUNION_CI REUNION_RMW REUNION_R34_NE REUNION_R34_SE REUNION_R34_SW REUNION_R34_NW REUNION_R50_NE REUNION_R50_SE REUNION_R50_SW REUNION_R50_NW REUNION_R64_NE REUNION_R64_SE REUNION_R64_SW REUNION_R64_NW BOM_LAT BOM_LON BOM_TYPE BOM_WIND BOM_PRES BOM_TNUM BOM_CI BOM_RMW BOM_R34_NE BOM_R34_SE BOM_R34_SW BOM_R34_NW BOM_R50_NE BOM_R50_SE BOM_R50_SW BOM_R50_NW BOM_R64_NE BOM_R64_SE BOM_R64_SW BOM_R64_NW BOM_ROCI BOM_POCI BOM_EYE BOM_POS_METHOD BOM_PRES_METHOD NADI_LAT NADI_LON NADI_CAT NADI_WIND NADI_PRES WELLINGTON_LAT WELLINGTON_LON WELLINGTON_WIND WELLINGTON_PRES DS824_LAT DS824_LON DS824_STAGE DS824_WIND DS824_PRES TD9636_LAT TD9636_LON TD9636_STAGE TD9636_WIND TD9636_PRES TD9635_LAT TD9635_LON TD9635_WIND TD9635_PRES TD9635_ROCI NEUMANN_LAT NEUMANN_LON NEUMANN_CLASS NEUMANN_WIND NEUMANN_PRES MLC_LAT MLC_LON MLC_CLASS MLC_WIND MLC_PRES USA_GUST BOM_GUST BOM_GUST_PER REUNION_GUST REUNION_GUST_PER USA_SEAHGT USA_SEARAD_NE USA_SEARAD_SE USA_SEARAD_SW USA_SEARAD_NW STORM_SPEED STORM_DIR
1888190N14117 1888 26 WP MM NOT_NAMED 1888-07-07 16:00:00 NR 13.9000 117.100 main 338 338 __________O___ -1 13.9000 117.100 7 13 291
1888190N14117 1888 26 WP MM NOT_NAMED 1888-07-07 18:00:00 NR 14.0621 116.675 main 373 383 __________P___ -1 14.0621 116.675 7 13 291
1888190N14117 1888 26 WP MM NOT_NAMED 1888-07-07 21:00:00 NR 14.3001 116.052 main 426 437 __________P___ -1 14.3001 116.052 7 13 292
1888190N14117 1888 26 WP MM NOT_NAMED 1888-07-08 00:00:00 NR 14.5263 115.469 main 480 487 __________P___ -1 14.5263 115.469 7 12 292
1888190N14117 1888 26 WP MM NOT_NAMED 1888-07-08 03:00:00 NR 14.7352 114.953 main 524 531 __________P___ -1 14.7352 114.953 7 11 293
1888190N14117 1888 26 WP MM NOT_NAMED 1888-07-08 04:00:00 NR 14.8000 114.800 main 542 542 __________O___ -1 14.8000 114.800 3 9 294
1888190N14117 1888 26 WP MM NOT_NAMED 1888-07-08 06:00:00 NR 14.9221 114.525 main 570 544 __________P___ -1 14.9221 114.525 3 8 296
1888190N14117 1888 26 WP MM NOT_NAMED 1888-07-08 09:00:00 NR 15.0931 114.170 main 544 509 __________P___ -1 15.0931 114.170 3 7 297
1888190N14117 1888 26 WP MM NOT_NAMED 1888-07-08 12:00:00 NR 15.2606 113.848 main 509 479 __________P___ -1 15.2606 113.848 3 7 299
1888190N14117 1888 26 WP MM NOT_NAMED 1888-07-08 15:00:00 NR 15.4371 113.519 main 479 470 __________P___ -1 15.4371 113.519 3 7 299
1888190N14117 1888 26 WP MM NOT_NAMED 1888-07-08 16:00:00 NR 15.5000 113.400 main 470 441 __________O___ -1 15.5000 113.400 4 9 298
1888190N14117 1888 26 WP MM NOT_NAMED 1888-07-08 18:00:00 NR 15.6574 113.087 main 441 390 __________P___ -1 15.6574 113.087 4 11 298
1888190N14117 1888 26 WP MM NOT_NAMED 1888-07-08 21:00:00 NR 15.9063 112.590 main 390 340 __________P___ -1 15.9063 112.590 4 11 298
1888190N14117 1888 26 WP MM NOT_NAMED 1888-07-09 00:00:00 NR 16.1453 112.112 main 340 296 __________P___ -1 16.1453 112.112 4 10 297
1888190N14117 1888 26 WP MM NOT_NAMED 1888-07-09 03:00:00 NR 16.3462 111.708 main 296 280 __________P___ -1 16.3462 111.708 4 8 297
1888190N14117 1888 26 WP MM NOT_NAMED 1888-07-09 04:00:00 NR 16.4000 111.600 main 280 265 __________O___ -1 16.4000 111.600 4 5 298
1888190N14117 1888 26 WP MM NOT_NAMED 1888-07-09 06:00:00 NR 16.4754 111.458 main 265 253 __________P___ -1 16.4754 111.458 4 4 300
1888190N14117 1888 26 WP MM NOT_NAMED 1888-07-09 09:00:00 NR 16.5449 111.334 main 253 244 __________P___ -1 16.5449 111.334 4 2 300
1888190N14117 1888 26 WP MM NOT_NAMED 1888-07-09 12:00:00 NR 16.5787 111.273 main 244 238 __________P___ -1 16.5787 111.273 4 1 295
1888190N14117 1888 26 WP MM NOT_NAMED 1888-07-09 15:00:00 NR 16.5952 111.223 main 238 238 __________P___ -1 16.5952 111.223 4 1 288
1888190N14117 1888 26 WP MM NOT_NAMED 1888-07-09 16:00:00 NR 16.6000 111.200 main 238 232 __________O___ -1 16.6000 111.200 4 2 277
1888190N14117 1888 26 WP MM NOT_NAMED 1888-07-09 18:00:00 NR 16.6065 111.127 main 232 226 __________P___ -1 16.6065 111.127 4 2 273
1888190N14117 1888 26 WP MM NOT_NAMED 1888-07-09 21:00:00 NR 16.6097 111.005 main 226 219 __________P___ -1 16.6097 111.005 4 3 274
1888190N14117 1888 26 WP MM NOT_NAMED 1888-07-10 00:00:00 NR 16.6244 110.858 main 219 198 __________P___ -1 16.6244 110.858 4 3 281
1888190N14117 1888 26 WP MM NOT_NAMED 1888-07-10 03:00:00 NR 16.6727 110.672 main 198 193 __________P___ -1 16.6727 110.672 4 4 287
1888190N14117 1888 26 WP MM NOT_NAMED 1888-07-10 04:00:00 NR 16.7000 110.600 main 193 173 __________O___ -1 16.7000 110.600 4 5 298
1888190N14117 1888 26 WP MM NOT_NAMED 1888-07-10 06:00:00 NR 16.7903 110.440 main 173 144 __________P___ -1 16.7903 110.440 4 6 302
1888190N14117 1888 26 WP MM NOT_NAMED 1888-07-10 09:00:00 NR 16.9637 110.161 main 144 112 __________P___ -1 16.9637 110.161 4 7 303
1888190N14117 1888 26 WP MM NOT_NAMED 1888-07-10 12:00:00 NR 17.1578 109.849 main 112 100 __________P___ -1 17.1578 109.849 4 7 302
1888190N14117 1888 26 WP MM NOT_NAMED 1888-07-10 15:00:00 NR 17.3443 109.514 main 100 89 __________P___ -1 17.3443 109.514 4 7 300
1888190N14117 1888 26 WP MM NOT_NAMED 1888-07-10 16:00:00 NR 17.4000 109.400 main 90 81 __________O___ -1 17.4000 109.400 4 7 295
1888190N14117 1888 26 WP MM NOT_NAMED 1888-07-10 18:00:00 NR 17.4973 109.170 main 84 84 __________P___ -1 17.4973 109.170 4 7 291
1888190N14117 1888 26 WP MM NOT_NAMED 1888-07-10 21:00:00 NR 17.6132 108.822 main 91 84 __________P___ -1 17.6132 108.822 4 7 287
1888190N14117 1888 26 WP MM NOT_NAMED 1888-07-11 00:00:00 NR 17.7027 108.471 main 91 91 __________P___ -1 17.7027 108.471 4 7 284
1888190N14117 1888 26 WP MM NOT_NAMED 1888-07-11 03:00:00 NR 17.7768 108.118 main 100 100 __________P___ -1 17.7768 108.118 4 7 282
1888190N14117 1888 26 WP MM NOT_NAMED 1888-07-11 04:00:00 NR 17.8000 108.000 main 107 __________O___ -1 17.8000 108.000 4 7 282

Digital Typhoon Data and Search

About IBTrACS Database

This database is a web-friendly format of International Best Track Archive for Climate Stewardship (IBTrACS), a global best track data archive curated by NOAA dating back to 1842.

Updated: 2021-10-25